createdAt,value
2019-04-16T00:00:14.173Z,5.39
2019-04-16T00:02:52.128Z,5.46
2019-04-16T00:05:29.978Z,5.26
2019-04-16T00:08:19.360Z,5.41
2019-04-16T00:10:43.716Z,5.25
2019-04-16T00:13:29.585Z,5.47
2019-04-16T00:16:02.965Z,5.29
2019-04-16T00:18:34.752Z,5.32
2019-04-16T00:21:10.830Z,5.38
2019-04-16T00:23:46.695Z,5.39
2019-04-16T00:26:17.930Z,5.42
2019-04-16T00:28:49.580Z,5.56
2019-04-16T00:31:21.492Z,5.34
2019-04-16T00:33:53.441Z,5.58
2019-04-16T00:36:25.273Z,5.52
2019-04-16T00:38:58.122Z,5.29
2019-04-16T00:41:29.902Z,5.52
2019-04-16T00:44:01.744Z,5.35
2019-04-16T00:46:33.645Z,5.50
2019-04-16T00:49:05.498Z,5.46
2019-04-16T00:51:37.348Z,5.24
2019-04-16T00:54:10.440Z,5.26
2019-04-16T00:56:43.515Z,5.46
2019-04-16T00:59:17.241Z,5.32
2019-04-16T01:01:49.011Z,5.52
2019-04-16T01:04:20.930Z,5.41
2019-04-16T01:06:52.694Z,5.43
2019-04-16T01:09:24.619Z,5.52
2019-04-16T01:11:56.702Z,5.26
2019-04-16T01:14:28.489Z,5.52
2019-04-16T01:17:03.891Z,5.26
2019-04-16T01:19:35.513Z,5.61
2019-04-16T01:22:07.996Z,5.39
2019-04-16T01:24:40.753Z,5.46
2019-04-16T01:27:12.662Z,5.61
2019-04-16T01:29:44.572Z,5.31
2019-04-16T01:32:21.026Z,5.69
2019-04-16T01:34:57.570Z,5.49
2019-04-16T01:37:30.305Z,5.38
2019-04-16T01:40:03.848Z,5.69
2019-04-16T01:42:35.701Z,5.35
2019-04-16T01:45:08.509Z,5.63
2019-04-16T01:47:40.263Z,5.50
2019-04-16T01:50:13.857Z,5.28
2019-04-16T01:52:49.467Z,5.47
2019-04-16T01:55:18.990Z,5.24
2019-04-16T01:57:50.812Z,5.47
2019-04-16T02:00:22.661Z,5.24
2019-04-16T02:02:54.499Z,5.67
2019-04-16T02:05:26.273Z,5.31
2019-04-16T02:07:59.289Z,5.79
2019-04-16T02:10:31.513Z,5.58
2019-04-16T02:13:03.302Z,5.25
2019-04-16T02:15:35.065Z,5.50
2019-04-16T02:18:06.828Z,5.25
2019-04-16T02:20:39.592Z,5.70
2019-04-16T02:23:13.525Z,5.34
2019-04-16T02:25:45.039Z,5.72
2019-04-16T02:28:16.881Z,5.50
2019-04-16T02:30:48.748Z,5.39
2019-04-16T02:33:20.549Z,5.73
2019-04-16T02:35:52.403Z,5.34
2019-04-16T02:38:24.234Z,5.69
2019-04-16T02:40:56.006Z,5.47
2019-04-16T02:43:27.878Z,5.45
2019-04-16T02:45:59.655Z,5.69
2019-04-16T02:48:31.501Z,5.29
2019-04-16T02:51:20.058Z,5.83
2019-04-16T02:54:09.996Z,5.50
2019-04-16T02:56:59.722Z,5.55
2019-04-16T02:59:46.001Z,5.53
2019-04-16T03:02:15.922Z,5.50
2019-04-16T03:05:01.714Z,5.70
2019-04-16T03:07:33.665Z,5.22
2019-04-16T03:10:05.903Z,5.61
2019-04-16T03:12:37.748Z,5.25
2019-04-16T03:15:09.607Z,5.66
2019-04-16T03:17:43.743Z,5.31
2019-04-16T03:20:20.755Z,5.85
2019-04-16T03:22:53.768Z,5.49
2019-04-16T03:25:25.547Z,5.56
2019-04-16T03:27:57.533Z,5.75
2019-04-16T03:30:30.456Z,5.28
2019-04-16T03:33:10.266Z,5.80
2019-04-16T03:35:35.924Z,5.45
2019-04-16T03:38:08.041Z,5.70
2019-04-16T03:40:40.044Z,5.69
2019-04-16T03:43:13.714Z,5.25
2019-04-16T03:45:47.581Z,5.72
2019-04-16T03:48:20.650Z,5.34
2019-04-16T03:50:53.317Z,5.77
2019-04-16T03:53:25.245Z,5.49
2019-04-16T03:55:58.315Z,5.66
2019-04-16T03:58:30.538Z,5.73
2019-04-16T04:01:02.571Z,5.28
2019-04-16T04:03:34.360Z,5.61
2019-04-16T04:06:07.873Z,5.24
2019-04-16T04:08:39.640Z,5.83
2019-04-16T04:11:11.455Z,5.43
2019-04-16T04:13:43.233Z,5.77
2019-04-16T04:16:15.689Z,5.70
2019-04-16T04:18:47.577Z,5.19
2019-04-16T04:21:22.102Z,5.87
2019-04-16T04:23:52.950Z,5.46
2019-04-16T04:26:24.934Z,5.63
2019-04-16T04:28:56.793Z,5.66
2019-04-16T04:31:32.030Z,5.22
2019-04-16T04:34:02.056Z,5.62
2019-04-16T04:36:34.997Z,5.25
2019-04-16T04:39:09.923Z,5.82
2019-04-16T04:41:42.287Z,5.45
2019-04-16T04:44:14.129Z,5.63
2019-04-16T04:46:46.866Z,5.61
2019-04-16T04:49:18.803Z,5.22
2019-04-16T04:51:50.609Z,5.65
2019-04-16T04:54:23.499Z,5.29
2019-04-16T04:56:56.397Z,5.73
2019-04-16T04:59:29.007Z,5.43
2019-04-16T05:02:01.080Z,5.58
2019-04-16T05:04:37.642Z,5.55
2019-04-16T05:07:11.297Z,5.24
2019-04-16T05:09:43.134Z,5.62
2019-04-16T05:12:17.834Z,5.31
2019-04-16T05:14:57.104Z,5.79
2019-04-16T05:17:27.615Z,5.56
2019-04-16T05:19:59.368Z,5.25
2019-04-16T05:22:32.921Z,5.63
2019-04-16T05:25:07.793Z,5.38
2019-04-16T05:27:41.076Z,5.52
2019-04-16T05:30:13.324Z,5.46
2019-04-16T05:32:45.498Z,5.26
2019-04-16T05:35:17.349Z,5.58
2019-04-16T05:37:51.487Z,5.35
2019-04-16T05:40:22.806Z,5.62
2019-04-16T05:42:55.823Z,5.61
2019-04-16T05:45:28.225Z,5.34
2019-04-16T05:48:00.104Z,5.58
2019-04-16T05:50:31.877Z,5.63
2019-04-16T05:53:05.468Z,5.42
2019-04-16T05:55:49.658Z,5.31
2019-04-16T05:58:18.337Z,5.47
2019-04-16T06:01:04.133Z,5.31
2019-04-16T06:06:00.878Z,5.47
2019-04-16T06:08:32.568Z,5.32
2019-04-16T06:11:04.603Z,5.38
2019-04-16T06:13:46.774Z,5.50
2019-04-16T06:16:23.936Z,5.38
2019-04-16T06:19:08.500Z,5.25
2019-04-16T06:21:58.610Z,5.29
2019-04-16T06:24:35.772Z,5.29
2019-04-16T06:27:09.588Z,5.34
2019-04-16T06:29:47.260Z,5.29
2019-04-16T06:32:18.871Z,5.25
2019-04-16T06:35:08.626Z,5.35
2019-04-16T06:37:54.096Z,5.31
2019-04-16T06:40:39.585Z,5.28
2019-04-16T06:43:25.234Z,5.29
2019-04-16T06:45:55.501Z,5.38
2019-04-16T06:48:28.827Z,5.36
2019-04-16T06:51:18.404Z,5.35
2019-04-16T06:53:49.935Z,5.36
2019-04-16T06:56:40.355Z,5.38
2019-04-16T06:59:17.657Z,5.39
2019-04-16T07:02:01.033Z,5.43
2019-04-16T07:04:37.223Z,5.47
2019-04-16T07:07:38.364Z,5.49
2019-04-16T07:10:04.764Z,5.56
2019-04-16T07:12:45.583Z,5.61
2019-04-16T07:15:22.385Z,5.62
2019-04-16T07:17:52.156Z,5.66
2019-04-16T07:20:23.986Z,5.72
2019-04-16T07:22:55.789Z,5.79
2019-04-16T07:25:29.572Z,5.85
2019-04-16T07:28:04.556Z,5.89
2019-04-16T07:30:43.887Z,5.94
2019-04-16T07:33:35.484Z,6.01
2019-04-16T07:36:29.286Z,6.13
2019-04-16T07:39:18.000Z,6.18
2019-04-16T07:41:50.790Z,6.22
2019-04-16T07:44:45.844Z,6.37
2019-04-16T07:47:23.909Z,6.45
2019-04-16T07:50:00.502Z,6.52
2019-04-16T07:52:50.406Z,6.59
2019-04-16T07:55:27.487Z,6.68
2019-04-16T07:58:00.410Z,6.78
2019-04-16T08:00:32.410Z,6.86
2019-04-16T08:03:07.053Z,6.92
2019-04-16T08:05:41.202Z,7.02
2019-04-16T08:08:15.011Z,7.07
2019-04-16T08:10:46.872Z,7.17
2019-04-16T08:13:22.503Z,7.24
2019-04-16T08:15:56.727Z,7.30
2019-04-16T08:18:27.901Z,7.41
2019-04-16T08:21:10.165Z,7.48
2019-04-16T08:23:44.265Z,7.55
2019-04-16T08:26:34.072Z,7.66
2019-04-16T08:29:05.837Z,7.74
2019-04-16T08:31:44.527Z,7.82
2019-04-16T08:34:33.096Z,7.94
2019-04-16T08:37:07.976Z,8.01
2019-04-16T08:39:39.837Z,8.13
2019-04-16T08:42:11.958Z,8.22
2019-04-16T08:44:43.780Z,8.33
2019-04-16T08:47:21.429Z,8.44
2019-04-16T08:50:12.205Z,8.53
2019-04-16T08:52:56.676Z,8.63
2019-04-16T08:55:28.438Z,8.70
2019-04-16T08:58:06.046Z,8.81
2019-04-16T09:00:39.711Z,8.91
2019-04-16T09:03:11.484Z,9.02
2019-04-16T09:05:43.254Z,9.11
2019-04-16T09:08:28.388Z,9.19
2019-04-16T09:11:23.527Z,9.31
2019-04-16T09:14:08.771Z,9.38
2019-04-16T09:16:57.188Z,9.47
2019-04-16T09:19:31.926Z,9.56
2019-04-16T09:22:09.220Z,9.66
2019-04-16T09:24:59.069Z,9.73
2019-04-16T09:27:44.694Z,9.84
2019-04-16T09:30:27.245Z,9.92
2019-04-16T09:33:03.543Z,10.00
2019-04-16T09:36:03.710Z,10.07
2019-04-16T09:38:49.144Z,10.17
2019-04-16T09:41:36.955Z,10.23
2019-04-16T09:44:08.937Z,10.32
2019-04-16T09:46:51.267Z,10.38
2019-04-16T09:49:20.182Z,10.44
2019-04-16T09:51:52.088Z,10.51
2019-04-16T09:54:26.438Z,10.56
2019-04-16T09:56:59.735Z,10.62
2019-04-16T09:59:36.597Z,10.68
2019-04-16T10:02:11.143Z,10.69
2019-04-16T10:04:52.022Z,10.79
2019-04-16T10:07:23.950Z,10.82
2019-04-16T10:09:55.648Z,10.87
2019-04-16T10:12:30.152Z,10.90
2019-04-16T10:15:11.138Z,10.96
2019-04-16T10:17:45.818Z,11.03
2019-04-16T10:20:30.034Z,11.07
2019-04-16T10:23:04.589Z,11.11
2019-04-16T10:25:53.776Z,11.16
2019-04-16T10:28:44.598Z,11.21
2019-04-16T10:31:34.963Z,11.26
2019-04-16T10:34:06.688Z,11.28
2019-04-16T10:36:47.280Z,11.34
2019-04-16T10:39:18.895Z,11.34
2019-04-16T10:41:56.480Z,11.38
2019-04-16T10:44:37.260Z,11.43
2019-04-16T10:47:26.932Z,11.46
2019-04-16T10:50:09.518Z,11.54
2019-04-16T10:52:59.147Z,11.58
2019-04-16T10:55:50.199Z,11.60
2019-04-16T10:58:42.758Z,11.67
2019-04-16T11:01:17.378Z,11.70
2019-04-16T11:03:50.930Z,11.78
2019-04-16T11:06:47.567Z,11.84
2019-04-16T11:09:37.703Z,11.89
2019-04-16T11:12:09.787Z,11.93
2019-04-16T11:14:54.425Z,11.98
2019-04-16T11:17:29.381Z,12.01
2019-04-16T11:20:06.184Z,12.06
2019-04-16T11:22:56.204Z,12.12
2019-04-16T11:25:31.548Z,12.16
2019-04-16T11:28:06.428Z,12.21
2019-04-16T11:30:42.799Z,12.25
2019-04-16T11:33:14.888Z,12.29
2019-04-16T11:35:56.362Z,12.36
2019-04-16T11:38:28.449Z,12.37
2019-04-16T11:41:06.692Z,12.46
2019-04-16T11:43:38.747Z,12.49
2019-04-16T11:46:28.350Z,12.57
2019-04-16T11:49:17.828Z,12.63
2019-04-16T11:51:55.434Z,12.70
2019-04-16T11:54:27.239Z,12.75
2019-04-16T11:57:00.248Z,12.80
2019-04-16T11:59:38.214Z,12.87
2019-04-16T12:02:27.975Z,12.94
2019-04-16T12:05:04.160Z,13.04
2019-04-16T12:07:55.334Z,13.11
2019-04-16T12:10:41.510Z,13.19
2019-04-16T12:13:34.106Z,13.31
2019-04-16T12:16:28.552Z,13.43
2019-04-16T12:19:18.145Z,13.65
2019-04-16T12:22:15.083Z,13.93
2019-04-16T12:24:51.212Z,14.17
2019-04-16T12:27:34.318Z,14.47
2019-04-16T12:30:30.192Z,14.78
2019-04-16T12:33:19.492Z,15.17
2019-04-16T12:36:12.826Z,15.58
2019-04-16T12:39:00.898Z,16.04
2019-04-16T12:42:06.140Z,16.49
2019-04-16T12:44:45.670Z,16.91
2019-04-16T12:47:24.055Z,17.37
2019-04-16T12:50:18.942Z,17.85
2019-04-16T12:53:02.677Z,18.34
2019-04-16T12:55:57.258Z,18.82
2019-04-16T12:58:50.696Z,19.32
2019-04-16T13:01:23.855Z,19.74
2019-04-16T13:04:17.180Z,20.31
2019-04-16T13:06:53.444Z,20.73
2019-04-16T13:09:39.174Z,21.24
2019-04-16T13:12:32.491Z,21.69
2019-04-16T13:15:26.263Z,22.16
2019-04-16T13:18:19.979Z,22.64
2019-04-16T13:21:10.834Z,23.17
2019-04-16T13:24:02.248Z,23.66
2019-04-16T13:26:53.372Z,24.13
2019-04-16T13:29:29.404Z,24.50
2019-04-16T13:31:59.336Z,24.97
2019-04-16T13:34:34.784Z,25.36
2019-04-16T13:37:06.631Z,25.73
2019-04-16T13:39:40.484Z,26.12
2019-04-16T13:42:12.619Z,26.46
2019-04-16T13:44:49.067Z,26.82
2019-04-16T13:47:20.916Z,27.16
2019-04-16T13:50:02.592Z,27.48
2019-04-16T13:52:33.480Z,27.89
2019-04-16T13:55:25.261Z,28.22
2019-04-16T13:58:07.397Z,28.53
2019-04-16T14:01:08.891Z,28.90
2019-04-16T14:03:38.285Z,29.20
2019-04-16T14:06:12.832Z,29.48
2019-04-16T14:08:45.574Z,29.72
2019-04-16T14:11:20.579Z,29.92
2019-04-16T14:13:52.635Z,30.12
2019-04-16T14:16:24.409Z,30.37
2019-04-16T14:18:56.179Z,30.67
2019-04-16T14:21:28.035Z,30.91
2019-04-16T14:23:59.829Z,31.15
2019-04-16T14:26:31.694Z,31.40
2019-04-16T14:29:06.802Z,31.69
2019-04-16T14:31:37.480Z,31.94
2019-04-16T14:34:20.722Z,32.20
2019-04-16T14:36:53.184Z,32.47
2019-04-16T14:39:31.061Z,32.69
2019-04-16T14:42:03.140Z,32.92
2019-04-16T14:44:52.700Z,33.11
2019-04-16T14:47:24.621Z,33.30
2019-04-16T14:49:57.909Z,33.48
2019-04-16T14:52:29.954Z,33.62
2019-04-16T14:55:03.548Z,33.71
2019-04-16T14:57:39.784Z,33.87
2019-04-16T15:00:28.181Z,34.07
2019-04-16T15:03:01.661Z,34.25
2019-04-16T15:05:35.168Z,34.45
2019-04-16T15:08:08.762Z,34.62
2019-04-16T15:10:58.031Z,34.78
2019-04-16T15:13:34.251Z,34.95
2019-04-16T15:16:21.261Z,34.99
2019-04-16T15:18:52.070Z,34.93
2019-04-16T15:21:43.043Z,35.02
2019-04-16T15:24:16.475Z,35.13
2019-04-16T15:26:54.271Z,35.29
2019-04-16T15:29:31.356Z,35.42
2019-04-16T15:32:19.932Z,35.53
2019-04-16T15:34:53.352Z,35.61
2019-04-16T15:37:26.795Z,35.69
2019-04-16T15:40:00.233Z,35.76
2019-04-16T15:42:40.859Z,35.70
2019-04-16T15:45:14.858Z,35.37
2019-04-16T15:48:06.549Z,34.66
2019-04-16T15:50:45.901Z,33.62
2019-04-16T15:53:25.423Z,32.57
2019-04-16T15:55:59.105Z,31.62
2019-04-16T15:58:32.781Z,30.68
2019-04-16T16:01:21.686Z,29.85
2019-04-16T16:04:10.406Z,28.98
2019-04-16T16:06:48.796Z,28.16
2019-04-16T16:09:31.209Z,27.41
2019-04-16T16:12:10.992Z,26.70
2019-04-16T16:14:43.063Z,26.01
2019-04-16T16:17:16.014Z,25.42
2019-04-16T16:19:48.754Z,24.83
2019-04-16T16:22:20.816Z,24.27
2019-04-16T16:24:52.674Z,23.73
2019-04-16T16:27:24.563Z,23.27
2019-04-16T16:29:56.277Z,22.74
2019-04-16T16:32:28.083Z,22.29
2019-04-16T16:34:59.863Z,21.82
2019-04-16T16:37:33.949Z,21.41
2019-04-16T16:40:07.292Z,21.03
2019-04-16T16:42:39.308Z,20.62
2019-04-16T16:45:11.188Z,20.24
2019-04-16T16:47:43.077Z,19.90
2019-04-16T16:50:15.039Z,19.54
2019-04-16T16:53:04.904Z,19.22
2019-04-16T16:55:38.473Z,18.86
2019-04-16T16:58:12.173Z,18.55
2019-04-16T17:01:02.643Z,18.30
2019-04-16T17:03:42.311Z,17.94
2019-04-16T17:06:15.744Z,17.66
2019-04-16T17:08:47.558Z,17.41
2019-04-16T17:11:19.271Z,17.18
2019-04-16T17:13:51.793Z,16.93
2019-04-16T17:16:24.400Z,16.73
2019-04-16T17:18:56.668Z,16.49
2019-04-16T17:21:28.822Z,16.26
2019-04-16T17:24:00.713Z,16.04
2019-04-16T17:26:33.009Z,15.82
2019-04-16T17:29:05.282Z,15.64
2019-04-16T17:31:37.625Z,15.40
2019-04-16T17:34:09.544Z,15.22
2019-04-16T17:36:41.574Z,15.03
2019-04-16T17:39:15.817Z,14.81
2019-04-16T17:41:50.400Z,14.62
2019-04-16T17:44:27.447Z,14.42
2019-04-16T17:47:01.468Z,14.24
2019-04-16T17:49:54.786Z,14.04
2019-04-16T17:52:31.278Z,13.83
2019-04-16T17:55:20.703Z,13.65
2019-04-16T17:57:57.157Z,13.43
2019-04-16T18:00:46.695Z,13.24
2019-04-16T18:03:23.086Z,13.05
2019-04-16T18:06:14.796Z,12.88
2019-04-16T18:09:04.901Z,12.71
2019-04-16T18:11:44.717Z,12.52
2019-04-16T18:14:17.078Z,12.36
2019-04-16T18:16:54.309Z,12.18
2019-04-16T18:19:27.469Z,12.02
2019-04-16T18:22:04.367Z,11.84
2019-04-16T18:24:42.242Z,11.70
2019-04-16T18:27:29.159Z,11.51
2019-04-16T18:30:07.212Z,11.34
2019-04-16T18:32:58.524Z,11.19
2019-04-16T18:35:32.039Z,11.03
2019-04-16T18:38:07.047Z,10.87
2019-04-16T18:40:44.437Z,10.76
2019-04-16T18:43:18.478Z,10.62
2019-04-16T18:45:52.404Z,10.49
2019-04-16T18:48:25.150Z,10.35
2019-04-16T18:50:59.958Z,10.27
2019-04-16T18:53:30.490Z,10.13
2019-04-16T18:56:02.361Z,10.00
2019-04-16T18:58:34.344Z,9.92
2019-04-16T19:01:10.419Z,9.77
2019-04-16T19:03:42.289Z,9.67
2019-04-16T19:06:14.379Z,9.54
2019-04-16T19:08:47.798Z,9.43
2019-04-16T19:11:20.462Z,9.33
2019-04-16T19:13:53.609Z,9.21
2019-04-16T19:16:25.801Z,9.07
2019-04-16T19:18:57.912Z,9.01
2019-04-16T19:21:29.983Z,8.92
2019-04-16T19:24:01.847Z,8.84
2019-04-16T19:26:33.763Z,8.72
2019-04-16T19:29:06.296Z,8.63
2019-04-16T19:31:39.039Z,8.54
2019-04-16T19:34:11.211Z,8.44
2019-04-16T19:36:43.438Z,8.37
2019-04-16T19:39:18.609Z,8.27
2019-04-16T19:41:53.000Z,8.16
2019-04-16T19:44:24.766Z,8.06
2019-04-16T19:46:57.072Z,7.98
2019-04-16T19:49:30.525Z,7.95
2019-04-16T19:52:03.111Z,7.85
2019-04-16T19:54:35.456Z,7.80
2019-04-16T19:57:08.806Z,7.74
2019-04-16T19:59:46.381Z,7.64
2019-04-16T20:02:16.773Z,7.58
2019-04-16T20:04:50.749Z,7.51
2019-04-16T20:07:23.063Z,7.43
2019-04-16T20:09:55.423Z,7.35
2019-04-16T20:12:28.064Z,7.29
2019-04-16T20:15:08.261Z,7.23
2019-04-16T20:17:36.117Z,7.16
2019-04-16T20:20:09.511Z,7.10
2019-04-16T20:22:41.731Z,7.03
2019-04-16T20:25:14.595Z,6.99
2019-04-16T20:27:46.886Z,6.92
2019-04-16T20:30:23.075Z,6.90
2019-04-16T20:32:53.508Z,6.83
2019-04-16T20:35:25.523Z,6.85
2019-04-16T20:37:57.367Z,6.83
2019-04-16T20:40:29.147Z,6.83
2019-04-16T20:43:01.108Z,6.82
2019-04-16T20:45:33.069Z,6.83
2019-04-16T20:48:05.349Z,6.82
2019-04-16T20:50:37.291Z,6.82
2019-04-16T20:53:09.111Z,6.78
2019-04-16T20:55:40.893Z,6.79
2019-04-16T20:58:14.753Z,6.76
2019-04-16T21:00:47.887Z,6.72
2019-04-16T21:03:22.336Z,6.73
2019-04-16T21:05:59.043Z,6.72
2019-04-16T21:08:26.885Z,6.73
2019-04-16T21:10:59.991Z,6.71
2019-04-16T21:13:32.076Z,6.71
2019-04-16T21:16:03.995Z,6.68
2019-04-16T21:18:35.938Z,6.65
2019-04-16T21:21:07.729Z,6.64
2019-04-16T21:23:40.660Z,6.62
2019-04-16T21:26:12.466Z,6.61
2019-04-16T21:28:58.521Z,6.58
2019-04-16T21:31:33.055Z,6.52
2019-04-16T21:34:09.360Z,6.48
2019-04-16T21:36:43.504Z,6.45
2019-04-16T21:39:25.905Z,6.41
2019-04-16T21:42:00.916Z,6.38
2019-04-16T21:44:31.260Z,6.34
2019-04-16T21:47:03.267Z,6.28
2019-04-16T21:49:38.758Z,6.24
2019-04-16T21:52:08.603Z,6.22
2019-04-16T21:54:40.534Z,6.18
2019-04-16T21:57:13.260Z,6.17
2019-04-16T21:59:45.958Z,6.11
2019-04-16T22:02:25.114Z,6.10
2019-04-16T22:04:56.973Z,6.08
2019-04-16T22:07:29.095Z,6.06
2019-04-16T22:10:02.963Z,6.06
2019-04-16T22:12:34.838Z,6.01
2019-04-16T22:15:07.569Z,5.98
2019-04-16T22:17:39.452Z,5.97
2019-04-16T22:20:14.695Z,5.94
2019-04-16T22:22:50.438Z,5.92
2019-04-16T22:25:27.795Z,5.92
2019-04-16T22:28:01.195Z,5.90
2019-04-16T22:30:34.163Z,5.90
2019-04-16T22:33:07.749Z,5.89
2019-04-16T22:35:39.596Z,5.89
2019-04-16T22:38:14.288Z,5.90
2019-04-16T22:40:51.548Z,5.94
2019-04-16T22:43:27.917Z,5.98
2019-04-16T22:46:03.053Z,6.03
2019-04-16T22:48:37.428Z,6.08
2019-04-16T22:51:14.515Z,6.14
2019-04-16T22:53:46.521Z,6.18
2019-04-16T22:56:18.808Z,6.22
2019-04-16T22:58:52.405Z,6.29
2019-04-16T23:01:25.987Z,6.37
2019-04-16T23:04:03.813Z,6.42
2019-04-16T23:06:38.683Z,6.52
2019-04-16T23:09:09.553Z,6.53
2019-04-16T23:11:41.430Z,6.59
2019-04-16T23:14:18.003Z,6.64
2019-04-16T23:16:49.764Z,6.67
2019-04-16T23:19:26.099Z,6.69
2019-04-16T23:22:00.108Z,6.72
2019-04-16T23:24:32.592Z,6.76
2019-04-16T23:27:05.694Z,6.80
2019-04-16T23:29:41.411Z,6.85
2019-04-16T23:32:13.296Z,6.89
2019-04-16T23:34:45.421Z,6.92
2019-04-16T23:37:23.286Z,6.98
2019-04-16T23:39:55.947Z,7.00
2019-04-16T23:42:27.723Z,7.03
2019-04-16T23:45:13.207Z,7.07
2019-04-16T23:47:46.773Z,7.13
2019-04-16T23:50:25.979Z,7.14
2019-04-16T23:53:08.978Z,7.20
2019-04-16T23:55:50.132Z,7.23
2019-04-16T23:58:28.544Z,7.29
